createdAt,value
2023-05-06T00:01:04.814Z,15.35
2023-05-06T00:03:34.426Z,16.25
2023-05-06T00:06:06.409Z,16.02
2023-05-06T00:08:34.874Z,17.65
2023-05-06T00:11:03.806Z,18.45
2023-05-06T00:13:32.480Z,21.08
2023-05-06T00:16:01.226Z,21.10
2023-05-06T00:18:29.846Z,17.92
2023-05-06T00:20:58.534Z,16.35
2023-05-06T00:23:28.482Z,18.25
2023-05-06T00:25:57.414Z,17.48
2023-05-06T00:28:26.062Z,20.20
2023-05-06T00:30:54.982Z,19.10
2023-05-06T00:33:23.612Z,17.80
2023-05-06T00:35:54.021Z,17.63
2023-05-06T00:38:22.989Z,16.98
2023-05-06T00:40:52.636Z,19.20
2023-05-06T00:43:21.237Z,19.83
2023-05-06T00:45:50.173Z,18.30
2023-05-06T00:48:19.381Z,18.50
2023-05-06T00:50:47.787Z,15.32
2023-05-06T00:53:17.005Z,21.42
2023-05-06T00:55:45.655Z,16.67
2023-05-06T00:58:16.031Z,17.23
2023-05-06T01:00:44.990Z,18.25
2023-05-06T01:03:13.811Z,17.65
2023-05-06T01:05:54.699Z,18.45
2023-05-06T01:08:32.942Z,19.17
2023-05-06T01:11:10.919Z,17.20
2023-05-06T01:13:48.143Z,18.23
2023-05-06T01:16:19.941Z,19.02
2023-05-06T01:18:53.549Z,18.90
2023-05-06T01:21:24.746Z,17.55
2023-05-06T01:23:57.917Z,19.40
2023-05-06T01:26:27.212Z,18.65
2023-05-06T01:28:55.965Z,17.50
2023-05-06T01:31:29.789Z,18.58
2023-05-06T01:34:11.097Z,16.17
2023-05-06T01:36:52.414Z,17.60
2023-05-06T01:39:27.809Z,15.82
2023-05-06T01:41:59.291Z,17.15
2023-05-06T01:44:33.336Z,18.00
2023-05-06T01:47:02.927Z,17.75
2023-05-06T01:49:31.888Z,20.50
2023-05-06T01:52:00.534Z,18.48
2023-05-06T01:54:31.457Z,21.73
2023-05-06T01:57:00.268Z,22.65
2023-05-06T01:59:29.692Z,18.48
2023-05-06T02:01:58.667Z,20.58
2023-05-06T02:04:27.384Z,19.17
2023-05-06T02:06:56.786Z,19.95
2023-05-06T02:09:26.083Z,24.05
2023-05-06T02:12:00.583Z,21.83
2023-05-06T02:14:29.220Z,21.65
2023-05-06T02:16:59.295Z,23.33
2023-05-06T02:19:27.635Z,20.10
2023-05-06T02:21:56.435Z,22.65
2023-05-06T02:24:25.159Z,24.15
2023-05-06T02:26:53.939Z,21.95
2023-05-06T02:29:23.563Z,23.08
2023-05-06T02:31:52.373Z,25.30
2023-05-06T02:34:21.182Z,19.00
2023-05-06T02:36:50.291Z,21.75
2023-05-06T02:39:18.936Z,22.20
2023-05-06T02:41:47.531Z,21.00
2023-05-06T02:44:16.115Z,23.38
2023-05-06T02:46:46.980Z,19.13
2023-05-06T02:49:15.903Z,20.65
2023-05-06T02:51:44.525Z,21.08
2023-05-06T02:54:13.117Z,22.40
2023-05-06T02:56:43.227Z,21.50
2023-05-06T02:59:13.266Z,23.38
2023-05-06T03:01:41.888Z,24.60
2023-05-06T03:04:11.878Z,26.33
2023-05-06T03:06:40.782Z,27.67
2023-05-06T03:09:09.848Z,26.10
2023-05-06T03:11:38.778Z,29.17
2023-05-06T03:14:08.763Z,33.47
2023-05-06T03:16:37.523Z,32.03
2023-05-06T03:19:06.624Z,31.98
2023-05-06T03:21:36.971Z,29.85
2023-05-06T03:24:06.142Z,31.70
2023-05-06T03:26:37.465Z,28.33
2023-05-06T03:29:07.120Z,26.42
2023-05-06T03:31:36.595Z,30.85
2023-05-06T03:34:05.052Z,31.23
2023-05-06T03:36:35.980Z,31.13
2023-05-06T03:39:04.933Z,28.23
2023-05-06T03:41:35.991Z,27.90
2023-05-06T03:44:04.668Z,30.25
2023-05-06T03:46:33.688Z,29.33
2023-05-06T03:49:03.464Z,26.40
2023-05-06T03:51:32.500Z,25.67
2023-05-06T03:54:03.525Z,24.95
2023-05-06T03:56:33.279Z,27.67
2023-05-06T03:59:02.525Z,23.75
2023-05-06T04:01:31.674Z,25.70
2023-05-06T04:04:01.427Z,23.45
2023-05-06T04:06:30.257Z,23.95
2023-05-06T04:08:58.560Z,21.85
2023-05-06T04:11:29.870Z,25.05
2023-05-06T04:13:59.915Z,22.40
2023-05-06T04:16:29.160Z,24.40
2023-05-06T04:18:58.555Z,23.08
2023-05-06T04:21:27.853Z,22.92
2023-05-06T04:24:02.529Z,22.48
2023-05-06T04:26:39.040Z,20.73
2023-05-06T04:29:07.942Z,22.98
2023-05-06T04:31:42.406Z,21.02
2023-05-06T04:34:13.703Z,21.48
2023-05-06T04:36:42.864Z,19.00
2023-05-06T04:39:47.426Z,18.83
2023-05-06T04:42:17.619Z,18.23
2023-05-06T04:45:07.179Z,19.75
2023-05-06T04:47:38.095Z,19.27
2023-05-06T04:50:08.737Z,19.08
2023-05-06T04:52:37.683Z,20.17
2023-05-06T04:55:07.862Z,18.73
2023-05-06T04:57:40.529Z,18.02
2023-05-06T05:00:11.530Z,15.77
2023-05-06T05:02:40.578Z,18.30
2023-05-06T05:05:10.212Z,20.30
2023-05-06T05:07:39.101Z,16.45
2023-05-06T05:10:10.486Z,17.83
2023-05-06T05:12:41.916Z,15.93
2023-05-06T05:15:11.452Z,16.52
2023-05-06T05:17:40.624Z,16.42
2023-05-06T05:20:10.598Z,17.63
2023-05-06T05:22:39.775Z,18.05
2023-05-06T05:25:09.281Z,19.13
2023-05-06T05:27:39.047Z,17.38
2023-05-06T05:30:10.782Z,15.10
2023-05-06T05:32:41.099Z,16.17
2023-05-06T05:35:11.303Z,14.85
2023-05-06T05:37:42.129Z,15.65
2023-05-06T05:40:11.850Z,15.73
2023-05-06T05:42:43.152Z,16.98
2023-05-06T05:45:22.189Z,18.70
2023-05-06T05:47:53.779Z,18.10
2023-05-06T05:50:24.308Z,13.30
2023-05-06T05:52:53.478Z,17.10
2023-05-06T05:55:23.775Z,14.75
2023-05-06T05:57:53.553Z,13.52
2023-05-06T06:00:24.990Z,15.70
2023-05-06T06:03:00.099Z,13.82
2023-05-06T06:05:28.995Z,14.07
2023-05-06T06:08:02.226Z,18.92
2023-05-06T06:10:32.978Z,13.52
2023-05-06T06:13:06.131Z,15.57
2023-05-06T06:15:37.452Z,14.93
2023-05-06T06:18:08.999Z,13.32
2023-05-06T06:20:39.536Z,14.32
2023-05-06T06:23:08.842Z,14.93
2023-05-06T06:25:37.627Z,13.07
2023-05-06T06:28:06.590Z,13.07
2023-05-06T06:30:36.307Z,13.52
2023-05-06T06:33:04.988Z,15.43
2023-05-06T06:35:33.356Z,16.80
2023-05-06T06:38:02.931Z,13.00
2023-05-06T06:40:31.613Z,12.32
2023-05-06T06:43:01.137Z,13.05
2023-05-06T06:45:51.095Z,13.43
2023-05-06T06:48:20.715Z,16.95
2023-05-06T06:50:49.352Z,13.57
2023-05-06T06:53:19.242Z,13.80
2023-05-06T06:55:48.003Z,12.93
2023-05-06T06:58:16.330Z,14.45
2023-05-06T07:00:45.605Z,12.57
2023-05-06T07:03:15.931Z,13.88
2023-05-06T07:05:45.149Z,12.13
2023-05-06T07:08:13.772Z,12.25
2023-05-06T07:10:42.032Z,11.00
2023-05-06T07:13:10.762Z,12.48
2023-05-06T07:15:39.422Z,12.18
2023-05-06T07:18:08.123Z,10.00
2023-05-06T07:20:38.147Z,9.45
2023-05-06T07:23:06.770Z,12.40
2023-05-06T07:25:35.507Z,12.15
2023-05-06T07:28:05.014Z,10.32
2023-05-06T07:30:33.638Z,11.15
2023-05-06T07:33:02.270Z,9.70
2023-05-06T07:35:32.336Z,11.27
2023-05-06T07:38:01.983Z,9.57
2023-05-06T07:40:30.577Z,12.15
2023-05-06T07:42:59.143Z,11.73
2023-05-06T07:45:27.564Z,12.07
2023-05-06T07:47:56.218Z,9.15
2023-05-06T07:50:24.881Z,8.45
2023-05-06T07:52:53.530Z,10.00
2023-05-06T07:55:23.169Z,10.73
2023-05-06T07:57:51.750Z,9.00
2023-05-06T08:00:20.637Z,7.95
2023-05-06T08:02:49.019Z,7.63
2023-05-06T08:05:18.173Z,6.60
2023-05-06T08:07:47.463Z,7.57
2023-05-06T08:10:16.159Z,10.30
2023-05-06T08:12:46.127Z,11.32
2023-05-06T08:15:15.058Z,5.60
2023-05-06T08:17:44.049Z,4.68
2023-05-06T08:20:14.783Z,6.22
2023-05-06T08:22:43.391Z,3.75
2023-05-06T08:25:12.475Z,5.80
2023-05-06T08:27:41.556Z,4.28
2023-05-06T08:30:13.141Z,7.10
2023-05-06T08:32:41.930Z,7.75
2023-05-06T08:35:11.521Z,4.22
2023-05-06T08:37:40.055Z,3.40
2023-05-06T08:40:21.360Z,3.40
2023-05-06T08:42:50.893Z,3.30
2023-05-06T08:45:20.964Z,2.80
2023-05-06T08:47:49.806Z,4.97
2023-05-06T08:50:18.520Z,4.43
2023-05-06T08:52:48.711Z,2.70
2023-05-06T08:55:18.178Z,3.63
2023-05-06T08:57:46.980Z,3.13
2023-05-06T09:00:17.524Z,2.30
2023-05-06T09:02:47.279Z,5.75
2023-05-06T09:05:16.395Z,3.13
2023-05-06T09:07:45.390Z,2.83
2023-05-06T09:10:17.966Z,3.30
2023-05-06T09:12:46.846Z,4.40
2023-05-06T09:15:16.376Z,2.15
2023-05-06T09:17:46.855Z,3.33
2023-05-06T09:20:15.636Z,3.20
2023-05-06T09:22:44.420Z,4.15
2023-05-06T09:25:13.318Z,3.10
2023-05-06T09:27:42.518Z,2.55
2023-05-06T09:30:13.308Z,5.30
2023-05-06T09:32:43.165Z,2.65
2023-05-06T09:35:13.232Z,5.60
2023-05-06T09:37:42.438Z,2.92
2023-05-06T09:40:12.047Z,3.45
2023-05-06T09:42:40.919Z,1.25
2023-05-06T09:45:11.858Z,3.08
2023-05-06T09:47:40.827Z,2.15
2023-05-06T09:50:14.916Z,2.65
2023-05-06T09:52:46.739Z,2.30
2023-05-06T09:55:15.929Z,3.28
2023-05-06T09:57:46.562Z,2.67
2023-05-06T10:00:17.156Z,2.05
2023-05-06T10:02:48.066Z,3.45
2023-05-06T10:05:18.805Z,4.57
2023-05-06T10:07:50.788Z,2.33
2023-05-06T10:10:19.435Z,1.98
2023-05-06T10:12:51.261Z,2.10
2023-05-06T10:15:20.072Z,2.53
2023-05-06T10:17:52.900Z,2.35
2023-05-06T10:20:25.379Z,3.00
2023-05-06T10:23:08.245Z,1.38
2023-05-06T10:25:39.603Z,2.83
2023-05-06T10:28:16.045Z,2.33
2023-05-06T10:30:59.820Z,4.55
2023-05-06T10:33:29.918Z,2.20
2023-05-06T10:36:16.091Z,4.75
2023-05-06T10:38:47.370Z,3.08
2023-05-06T10:41:16.917Z,1.90
2023-05-06T10:43:46.481Z,1.60
2023-05-06T10:46:16.806Z,2.80
2023-05-06T10:49:20.670Z,4.88
2023-05-06T10:52:12.999Z,5.78
2023-05-06T10:54:52.165Z,4.88
2023-05-06T10:57:27.070Z,2.55
2023-05-06T10:59:58.746Z,3.05
2023-05-06T11:02:31.344Z,2.20
2023-05-06T11:05:02.570Z,1.73
2023-05-06T11:07:34.469Z,1.38
2023-05-06T11:10:07.402Z,3.30
2023-05-06T11:12:51.153Z,3.25
2023-05-06T11:15:25.626Z,1.77
2023-05-06T11:17:55.933Z,1.90
2023-05-06T11:20:26.406Z,2.45
2023-05-06T11:22:56.424Z,2.13
2023-05-06T11:25:45.062Z,2.60
2023-05-06T11:28:15.455Z,1.90
2023-05-06T11:30:45.682Z,1.67
2023-05-06T11:33:19.568Z,3.47
2023-05-06T11:35:49.367Z,3.85
2023-05-06T11:38:19.138Z,2.05
2023-05-06T11:40:47.806Z,3.20
2023-05-06T11:43:17.565Z,1.58
2023-05-06T11:45:47.126Z,3.15
2023-05-06T11:48:16.730Z,2.05
2023-05-06T11:50:50.189Z,1.80
2023-05-06T11:53:23.553Z,3.03
2023-05-06T11:55:55.143Z,2.97
2023-05-06T11:58:28.268Z,2.60
2023-05-06T12:00:58.815Z,2.95
2023-05-06T12:03:29.221Z,2.10
2023-05-06T12:05:58.432Z,1.25
2023-05-06T12:08:31.805Z,2.08
2023-05-06T12:11:03.090Z,3.63
2023-05-06T12:13:32.045Z,2.20
2023-05-06T12:16:01.836Z,1.83
2023-05-06T12:18:31.440Z,1.80
2023-05-06T12:21:03.829Z,2.55
2023-05-06T12:23:33.950Z,2.65
2023-05-06T12:26:04.700Z,2.17
2023-05-06T12:28:35.071Z,1.92
2023-05-06T12:31:19.407Z,2.67
2023-05-06T12:33:50.545Z,1.63
2023-05-06T12:36:19.962Z,4.25
2023-05-06T12:38:53.627Z,2.42
2023-05-06T12:41:23.340Z,1.42
2023-05-06T12:43:52.862Z,1.65
2023-05-06T12:46:21.835Z,1.05
2023-05-06T12:49:01.185Z,1.50
2023-05-06T12:51:32.312Z,2.75
2023-05-06T12:54:02.108Z,2.03
2023-05-06T12:56:30.720Z,1.92
2023-05-06T12:59:04.513Z,2.10
2023-05-06T13:01:33.248Z,1.80
2023-05-06T13:04:02.068Z,1.98
2023-05-06T13:06:31.600Z,1.45
2023-05-06T13:09:01.582Z,2.90
2023-05-06T13:11:29.840Z,3.42
2023-05-06T13:13:58.539Z,1.85
2023-05-06T13:16:28.259Z,2.45
2023-05-06T13:18:56.632Z,1.48
2023-05-06T13:21:25.263Z,2.55
2023-05-06T13:23:53.914Z,1.20
2023-05-06T13:26:24.046Z,4.05
2023-05-06T13:28:52.453Z,1.67
2023-05-06T13:31:21.912Z,1.63
2023-05-06T13:33:50.672Z,2.97
2023-05-06T13:36:18.962Z,3.45
2023-05-06T13:38:47.730Z,2.00
2023-05-06T13:41:17.536Z,1.65
2023-05-06T13:43:47.698Z,2.20
2023-05-06T13:46:16.518Z,1.10
2023-05-06T13:48:44.811Z,1.35
2023-05-06T13:51:13.509Z,2.20
2023-05-06T13:53:42.137Z,1.05
2023-05-06T13:56:11.141Z,1.50
2023-05-06T13:58:39.705Z,4.75
2023-05-06T14:01:09.545Z,3.03
2023-05-06T14:03:38.177Z,1.08
2023-05-06T14:06:07.439Z,1.13
2023-05-06T14:08:36.204Z,2.35
2023-05-06T14:11:04.838Z,1.65
2023-05-06T14:13:34.797Z,2.70
2023-05-06T14:16:03.624Z,1.58
2023-05-06T14:18:35.049Z,1.23
2023-05-06T14:21:03.710Z,1.48
2023-05-06T14:23:32.832Z,2.05
2023-05-06T14:26:01.566Z,1.42
2023-05-06T14:28:29.864Z,1.45
2023-05-06T14:30:59.652Z,2.60
2023-05-06T14:33:28.412Z,1.70
2023-05-06T14:35:58.386Z,1.23
2023-05-06T14:38:27.095Z,2.17
2023-05-06T14:40:56.362Z,1.38
2023-05-06T14:43:26.154Z,1.20
2023-05-06T14:45:54.796Z,2.22
2023-05-06T14:48:25.390Z,2.40
2023-05-06T14:50:54.159Z,2.63
2023-05-06T14:53:23.825Z,1.38
2023-05-06T14:55:52.538Z,1.00
2023-05-06T14:58:21.215Z,1.30
2023-05-06T15:00:50.178Z,1.67
2023-05-06T15:03:19.137Z,1.85
2023-05-06T15:05:47.826Z,2.58
2023-05-06T15:08:16.286Z,3.85
2023-05-06T15:10:46.098Z,2.35
2023-05-06T15:13:14.566Z,3.78
2023-05-06T15:15:43.394Z,1.55
2023-05-06T15:18:13.405Z,1.25
2023-05-06T15:20:42.076Z,1.92
2023-05-06T15:23:10.773Z,1.67
2023-05-06T15:25:39.800Z,1.55
2023-05-06T15:28:09.931Z,1.70
2023-05-06T15:30:39.242Z,2.80
2023-05-06T15:33:08.900Z,2.72
2023-05-06T15:35:37.416Z,1.77
2023-05-06T15:38:06.280Z,1.77
2023-05-06T15:40:35.649Z,1.63
2023-05-06T15:43:05.698Z,1.20
2023-05-06T15:45:36.409Z,1.80
2023-05-06T15:48:05.469Z,1.23
2023-05-06T15:50:34.491Z,1.83
2023-05-06T15:53:03.627Z,1.48
2023-05-06T15:55:35.060Z,1.25
2023-05-06T15:58:12.353Z,6.88
2023-05-06T16:00:42.396Z,1.33
2023-05-06T16:03:12.364Z,0.70
2023-05-06T16:05:41.448Z,2.45
2023-05-06T16:08:10.138Z,3.08
2023-05-06T16:10:38.936Z,1.00
2023-05-06T16:13:07.989Z,1.77
2023-05-06T16:15:36.787Z,0.98
2023-05-06T16:18:07.330Z,1.80
2023-05-06T16:20:36.156Z,2.92
2023-05-06T16:23:05.321Z,1.25
2023-05-06T16:25:34.675Z,2.13
2023-05-06T16:28:03.565Z,1.25
2023-05-06T16:30:32.133Z,3.13
2023-05-06T16:33:00.826Z,0.90
2023-05-06T16:35:31.206Z,1.75
2023-05-06T16:37:59.894Z,1.20
2023-05-06T16:40:29.970Z,0.90
2023-05-06T16:42:58.702Z,0.80
2023-05-06T16:45:27.398Z,0.80
2023-05-06T16:47:56.068Z,1.40
2023-05-06T16:50:24.748Z,3.30
2023-05-06T16:52:54.479Z,3.25
2023-05-06T16:55:23.232Z,1.63
2023-05-06T16:57:52.284Z,1.75
2023-05-06T17:00:21.595Z,2.85
2023-05-06T17:02:50.368Z,2.97
2023-05-06T17:05:20.711Z,2.00
2023-05-06T17:07:51.069Z,2.00
2023-05-06T17:10:22.042Z,1.58
2023-05-06T17:12:51.268Z,2.88
2023-05-06T17:15:20.028Z,1.65
2023-05-06T17:17:48.787Z,1.48
2023-05-06T17:20:17.377Z,1.30
2023-05-06T17:22:46.017Z,1.63
2023-05-06T17:25:14.826Z,1.10
2023-05-06T17:27:45.766Z,1.95
2023-05-06T17:30:15.179Z,2.65
2023-05-06T17:32:44.028Z,1.10
2023-05-06T17:35:13.682Z,1.85
2023-05-06T17:37:42.569Z,1.30
2023-05-06T17:40:12.982Z,1.70
2023-05-06T17:42:41.660Z,1.45
2023-05-06T17:45:13.167Z,3.13
2023-05-06T17:47:41.852Z,2.15
2023-05-06T17:50:12.007Z,1.00
2023-05-06T17:52:41.017Z,1.52
2023-05-06T17:55:15.527Z,3.53
2023-05-06T17:57:45.816Z,1.30
2023-05-06T18:00:17.484Z,1.55
2023-05-06T18:02:46.551Z,1.25
2023-05-06T18:05:15.487Z,4.05
2023-05-06T18:07:43.898Z,1.60
2023-05-06T18:10:13.230Z,1.80
2023-05-06T18:12:42.129Z,3.83
2023-05-06T18:15:11.740Z,1.80
2023-05-06T18:17:42.270Z,2.58
2023-05-06T18:20:11.873Z,4.10
2023-05-06T18:22:42.816Z,1.98
2023-05-06T18:25:11.969Z,2.28
2023-05-06T18:27:41.399Z,3.50
2023-05-06T18:30:10.626Z,1.48
2023-05-06T18:32:39.355Z,2.70
2023-05-06T18:35:11.534Z,5.03
2023-05-06T18:37:40.628Z,1.38
2023-05-06T18:40:10.809Z,2.95
2023-05-06T18:42:39.381Z,2.03
2023-05-06T18:45:10.005Z,4.40
2023-05-06T18:47:40.289Z,2.33
2023-05-06T18:50:11.768Z,3.20
2023-05-06T18:52:40.162Z,2.00
2023-05-06T18:55:10.141Z,2.08
2023-05-06T18:57:39.617Z,2.78
2023-05-06T19:00:09.519Z,1.92
2023-05-06T19:02:38.011Z,1.90
2023-05-06T19:05:08.491Z,2.20
2023-05-06T19:07:38.535Z,4.47
2023-05-06T19:10:08.451Z,2.88
2023-05-06T19:12:37.374Z,2.35
2023-05-06T19:15:07.057Z,3.20
2023-05-06T19:17:35.784Z,3.92
2023-05-06T19:20:04.906Z,1.98
2023-05-06T19:22:33.701Z,3.53
2023-05-06T19:25:03.470Z,2.53
2023-05-06T19:27:32.139Z,2.67
2023-05-06T19:30:00.782Z,3.20
2023-05-06T19:32:29.433Z,3.47
2023-05-06T19:34:59.104Z,3.20
2023-05-06T19:37:30.230Z,3.67
2023-05-06T19:39:58.861Z,3.60
2023-05-06T19:42:29.087Z,3.90
2023-05-06T19:44:57.816Z,2.97
2023-05-06T19:47:27.392Z,2.80
2023-05-06T19:49:56.041Z,2.60
2023-05-06T19:52:26.942Z,3.22
2023-05-06T19:54:55.352Z,3.55
2023-05-06T19:57:24.065Z,3.20
2023-05-06T19:59:54.236Z,5.95
2023-05-06T20:02:23.456Z,2.30
2023-05-06T20:04:52.162Z,4.93
2023-05-06T20:07:21.770Z,3.25
2023-05-06T20:09:55.362Z,3.20
2023-05-06T20:12:26.315Z,2.55
2023-05-06T20:14:56.976Z,5.10
2023-05-06T20:17:25.888Z,10.77
2023-05-06T20:19:57.282Z,9.88
2023-05-06T20:22:26.063Z,8.02
2023-05-06T20:25:08.147Z,8.13
2023-05-06T20:27:37.116Z,4.00
2023-05-06T20:30:09.707Z,2.60
2023-05-06T20:32:39.159Z,2.70
2023-05-06T20:35:09.024Z,2.80
2023-05-06T20:37:38.196Z,4.10
2023-05-06T20:40:09.759Z,3.15
2023-05-06T20:42:38.616Z,3.53
2023-05-06T20:45:10.452Z,3.92
2023-05-06T20:47:39.521Z,3.97
2023-05-06T20:50:08.729Z,3.03
2023-05-06T20:52:37.669Z,2.80
2023-05-06T20:55:07.182Z,2.72
2023-05-06T20:57:36.321Z,3.03
2023-05-06T21:00:05.487Z,2.13
2023-05-06T21:02:40.051Z,5.40
2023-05-06T21:05:10.732Z,4.68
2023-05-06T21:07:39.940Z,3.22
2023-05-06T21:10:11.066Z,5.18
2023-05-06T21:12:40.002Z,4.00
2023-05-06T21:15:10.484Z,4.93
2023-05-06T21:17:40.848Z,4.60
2023-05-06T21:20:10.654Z,4.28
2023-05-06T21:22:39.323Z,5.53
2023-05-06T21:25:09.750Z,4.32
2023-05-06T21:27:38.427Z,3.75
2023-05-06T21:30:08.977Z,4.22
2023-05-06T21:32:38.995Z,2.65
2023-05-06T21:35:09.104Z,2.60
2023-05-06T21:37:37.892Z,2.42
2023-05-06T21:40:07.569Z,4.88
2023-05-06T21:42:36.206Z,2.33
2023-05-06T21:45:05.296Z,3.13
2023-05-06T21:47:34.039Z,5.05
2023-05-06T21:50:04.234Z,3.13
2023-05-06T21:52:33.192Z,6.40
2023-05-06T21:55:02.215Z,3.65
2023-05-06T21:57:31.137Z,4.88
2023-05-06T22:00:00.158Z,4.45
2023-05-06T22:02:29.017Z,3.83
2023-05-06T22:04:57.731Z,5.20
2023-05-06T22:07:27.589Z,4.47
2023-05-06T22:09:56.346Z,2.40
2023-05-06T22:12:25.241Z,4.28
2023-05-06T22:14:53.890Z,4.22
2023-05-06T22:17:23.125Z,4.45
2023-05-06T22:19:52.030Z,3.65
2023-05-06T22:22:21.707Z,2.22
2023-05-06T22:24:51.598Z,4.07
2023-05-06T22:27:20.741Z,4.13
2023-05-06T22:29:49.387Z,2.50
2023-05-06T22:32:20.206Z,3.67
2023-05-06T22:34:49.043Z,6.47
2023-05-06T22:37:17.940Z,3.03
2023-05-06T22:39:47.520Z,2.78
2023-05-06T22:42:17.549Z,4.22
2023-05-06T22:44:46.346Z,4.07
2023-05-06T22:47:16.869Z,2.90
2023-05-06T22:49:45.712Z,2.88
2023-05-06T22:52:14.358Z,3.22
2023-05-06T22:54:43.149Z,2.45
2023-05-06T22:57:11.884Z,2.60
2023-05-06T22:59:41.671Z,3.47
2023-05-06T23:02:10.261Z,4.05
2023-05-06T23:04:40.462Z,2.50
2023-05-06T23:07:09.360Z,2.22
2023-05-06T23:09:38.164Z,5.70
2023-05-06T23:12:07.739Z,2.65
2023-05-06T23:14:36.633Z,7.20
2023-05-06T23:17:07.252Z,2.20
2023-05-06T23:19:36.482Z,3.78
2023-05-06T23:22:05.672Z,3.15
2023-05-06T23:24:34.474Z,2.28
2023-05-06T23:27:03.385Z,3.20
2023-05-06T23:29:31.874Z,3.67
2023-05-06T23:32:00.655Z,2.35
2023-05-06T23:34:30.746Z,2.78
2023-05-06T23:36:59.806Z,3.35
2023-05-06T23:39:28.511Z,4.32
2023-05-06T23:42:00.523Z,2.97
2023-05-06T23:44:29.253Z,3.45
2023-05-06T23:46:57.922Z,5.15
2023-05-06T23:49:26.622Z,2.13
2023-05-06T23:51:56.547Z,4.68
2023-05-06T23:54:25.749Z,2.75
2023-05-06T23:56:54.399Z,6.55
2023-05-06T23:59:22.784Z,2.83
